sensor_id;sensor_type;location;lat;lon;timestamp;pressure;altitude;pressure_sealevel;temperature;humidity
64698;BME280;51124;53.394;-6.294;2023-04-28T00:00:28;100026.09;;;17.92;9.35
64698;BME280;51124;53.394;-6.294;2023-04-28T00:03:02;100027.43;;;18.04;9.46
64698;BME280;51124;53.394;-6.294;2023-04-28T00:05:39;100032.01;;;18.00;9.38
64698;BME280;51124;53.394;-6.294;2023-04-28T00:08:07;100029.84;;;17.64;9.39
64698;BME280;51124;53.394;-6.294;2023-04-28T00:10:34;100027.82;;;18.31;9.26
64698;BME280;51124;53.394;-6.294;2023-04-28T00:13:01;100026.59;;;18.19;9.29
64698;BME280;51124;53.394;-6.294;2023-04-28T00:15:29;100029.29;;;18.12;9.29
64698;BME280;51124;53.394;-6.294;2023-04-28T00:17:56;100030.19;;;17.83;9.39
64698;BME280;51124;53.394;-6.294;2023-04-28T00:20:23;100035.45;;;18.88;9.36
64698;BME280;51124;53.394;-6.294;2023-04-28T00:22:51;100024.55;;;17.39;9.55
64698;BME280;51124;53.394;-6.294;2023-04-28T00:25:18;100024.78;;;18.45;9.35
64698;BME280;51124;53.394;-6.294;2023-04-28T00:27:45;100018.80;;;18.56;9.38
64698;BME280;51124;53.394;-6.294;2023-04-28T00:30:13;100010.85;;;16.95;9.73
64698;BME280;51124;53.394;-6.294;2023-04-28T00:32:40;100017.50;;;18.13;9.34
64698;BME280;51124;53.394;-6.294;2023-04-28T00:35:08;100020.02;;;18.08;9.43
64698;BME280;51124;53.394;-6.294;2023-04-28T00:37:37;100022.46;;;17.56;9.37
64698;BME280;51124;53.394;-6.294;2023-04-28T00:40:05;100018.92;;;18.19;9.14
64698;BME280;51124;53.394;-6.294;2023-04-28T00:42:33;100017.55;;;19.28;9.04
64698;BME280;51124;53.394;-6.294;2023-04-28T00:45:00;100019.48;;;19.05;9.23
64698;BME280;51124;53.394;-6.294;2023-04-28T00:47:27;100029.17;;;20.53;9.58
64698;BME280;51124;53.394;-6.294;2023-04-28T00:49:55;100034.10;;;19.92;10.18
64698;BME280;51124;53.394;-6.294;2023-04-28T00:52:22;100029.40;;;17.97;10.22
64698;BME280;51124;53.394;-6.294;2023-04-28T00:54:49;100025.34;;;20.13;10.12
64698;BME280;51124;53.394;-6.294;2023-04-28T00:57:17;100028.69;;;19.97;10.75
64698;BME280;51124;53.394;-6.294;2023-04-28T00:59:44;100029.19;;;20.98;10.91
64698;BME280;51124;53.394;-6.294;2023-04-28T01:02:12;100035.53;;;20.68;11.18
64698;BME280;51124;53.394;-6.294;2023-04-28T01:04:40;100040.28;;;20.28;11.22
64698;BME280;51124;53.394;-6.294;2023-04-28T01:07:07;100041.77;;;20.03;11.44
64698;BME280;51124;53.394;-6.294;2023-04-28T01:09:35;100045.05;;;19.97;11.62
64698;BME280;51124;53.394;-6.294;2023-04-28T01:12:03;100044.39;;;20.45;11.51
64698;BME280;51124;53.394;-6.294;2023-04-28T01:14:30;100048.21;;;20.41;11.58
64698;BME280;51124;53.394;-6.294;2023-04-28T01:16:58;100042.89;;;19.85;11.59
64698;BME280;51124;53.394;-6.294;2023-04-28T01:19:25;100041.68;;;20.32;11.45
64698;BME280;51124;53.394;-6.294;2023-04-28T01:21:53;100044.43;;;19.26;11.95
64698;BME280;51124;53.394;-6.294;2023-04-28T01:24:20;100042.87;;;20.27;11.63
64698;BME280;51124;53.394;-6.294;2023-04-28T01:26:48;100049.29;;;20.18;11.66
64698;BME280;51124;53.394;-6.294;2023-04-28T01:29:15;100048.83;;;20.24;11.58
64698;BME280;51124;53.394;-6.294;2023-04-28T01:31:43;100055.52;;;19.75;11.78
64698;BME280;51124;53.394;-6.294;2023-04-28T01:34:10;100058.28;;;19.76;11.74
64698;BME280;51124;53.394;-6.294;2023-04-28T01:36:37;100054.67;;;20.14;11.60
64698;BME280;51124;53.394;-6.294;2023-04-28T01:39:05;100051.86;;;20.18;11.69
64698;BME280;51124;53.394;-6.294;2023-04-28T01:41:33;100055.32;;;19.92;11.77
64698;BME280;51124;53.394;-6.294;2023-04-28T01:44:00;100055.52;;;19.58;11.80
64698;BME280;51124;53.394;-6.294;2023-04-28T01:46:28;100061.59;;;18.84;11.56
64698;BME280;51124;53.394;-6.294;2023-04-28T01:48:55;100067.64;;;18.03;11.27
64698;BME280;51124;53.394;-6.294;2023-04-28T01:51:22;100071.71;;;17.52;10.96
64698;BME280;51124;53.394;-6.294;2023-04-28T01:53:49;100069.87;;;17.73;10.63
64698;BME280;51124;53.394;-6.294;2023-04-28T01:56:17;100076.42;;;17.98;10.30
64698;BME280;51124;53.394;-6.294;2023-04-28T01:58:44;100080.37;;;18.18;10.42
64698;BME280;51124;53.394;-6.294;2023-04-28T02:01:11;100082.94;;;17.40;10.31
64698;BME280;51124;53.394;-6.294;2023-04-28T02:03:39;100077.27;;;17.81;10.04
64698;BME280;51124;53.394;-6.294;2023-04-28T02:06:06;100075.92;;;17.88;9.94
64698;BME280;51124;53.394;-6.294;2023-04-28T02:08:33;100079.55;;;17.53;9.81
64698;BME280;51124;53.394;-6.294;2023-04-28T02:11:00;100079.43;;;18.43;9.51
64698;BME280;51124;53.394;-6.294;2023-04-28T02:13:28;100078.19;;;17.92;9.69
64698;BME280;51124;53.394;-6.294;2023-04-28T02:15:55;100078.60;;;18.02;9.65
64698;BME280;51124;53.394;-6.294;2023-04-28T02:18:22;100084.58;;;17.96;9.68
64698;BME280;51124;53.394;-6.294;2023-04-28T02:20:49;100085.86;;;17.93;9.59
64698;BME280;51124;53.394;-6.294;2023-04-28T02:23:17;100092.58;;;18.27;9.31
64698;BME280;51124;53.394;-6.294;2023-04-28T02:25:44;100091.84;;;18.43;9.33
64698;BME280;51124;53.394;-6.294;2023-04-28T02:28:11;100099.16;;;18.06;9.39
64698;BME280;51124;53.394;-6.294;2023-04-28T02:30:38;100100.34;;;17.06;9.68
64698;BME280;51124;53.394;-6.294;2023-04-28T02:33:05;100103.02;;;17.61;9.55
64698;BME280;51124;53.394;-6.294;2023-04-28T02:35:33;100100.53;;;18.16;9.30
64698;BME280;51124;53.394;-6.294;2023-04-28T02:38:00;100102.69;;;17.63;9.46
64698;BME280;51124;53.394;-6.294;2023-04-28T02:40:27;100100.47;;;17.87;9.32
64698;BME280;51124;53.394;-6.294;2023-04-28T02:42:54;100102.70;;;17.87;9.54
64698;BME280;51124;53.394;-6.294;2023-04-28T02:45:22;100108.71;;;17.85;9.46
64698;BME280;51124;53.394;-6.294;2023-04-28T02:47:49;100111.13;;;17.42;9.45
64698;BME280;51124;53.394;-6.294;2023-04-28T02:50:16;100108.67;;;17.95;9.36
64698;BME280;51124;53.394;-6.294;2023-04-28T02:52:44;100105.71;;;18.85;9.06
64698;BME280;51124;53.394;-6.294;2023-04-28T02:55:11;100111.32;;;18.30;9.18
64698;BME280;51124;53.394;-6.294;2023-04-28T02:57:38;100113.10;;;17.92;9.39
64698;BME280;51124;53.394;-6.294;2023-04-28T03:00:06;100115.09;;;18.06;9.22
64698;BME280;51124;53.394;-6.294;2023-04-28T03:02:34;100116.88;;;18.02;9.14
64698;BME280;51124;53.394;-6.294;2023-04-28T03:05:01;100114.95;;;17.97;9.29
64698;BME280;51124;53.394;-6.294;2023-04-28T03:07:28;100120.77;;;17.92;9.29
64698;BME280;51124;53.394;-6.294;2023-04-28T03:09:56;100118.62;;;18.03;9.18
64698;BME280;51124;53.394;-6.294;2023-04-28T03:12:23;100121.07;;;16.96;9.39
64698;BME280;51124;53.394;-6.294;2023-04-28T03:14:51;100121.68;;;18.09;9.15
64698;BME280;51124;53.394;-6.294;2023-04-28T03:17:19;100119.54;;;18.22;9.04
64698;BME280;51124;53.394;-6.294;2023-04-28T03:19:46;100116.43;;;18.82;9.16
64698;BME280;51124;53.394;-6.294;2023-04-28T03:22:13;100118.33;;;18.73;9.25
64698;BME280;51124;53.394;-6.294;2023-04-28T03:24:40;100120.48;;;17.31;9.39
64698;BME280;51124;53.394;-6.294;2023-04-28T03:27:08;100126.59;;;17.95;9.44
64698;BME280;51124;53.394;-6.294;2023-04-28T03:29:35;100128.36;;;18.20;9.25
64698;BME280;51124;53.394;-6.294;2023-04-28T03:32:02;100128.20;;;18.96;9.19
64698;BME280;51124;53.394;-6.294;2023-04-28T03:34:29;100134.20;;;17.52;9.38
64698;BME280;51124;53.394;-6.294;2023-04-28T03:36:56;100131.48;;;17.29;9.36
64698;BME280;51124;53.394;-6.294;2023-04-28T03:39:24;100137.24;;;18.29;9.19
64698;BME280;51124;53.394;-6.294;2023-04-28T03:41:51;100134.75;;;16.86;9.55
64698;BME280;51124;53.394;-6.294;2023-04-28T03:44:18;100138.94;;;16.92;9.53
64698;BME280;51124;53.394;-6.294;2023-04-28T03:46:45;100142.56;;;17.78;9.31
64698;BME280;51124;53.394;-6.294;2023-04-28T03:49:13;100146.61;;;19.83;9.74
64698;BME280;51124;53.394;-6.294;2023-04-28T03:51:40;100150.59;;;19.31;9.88
64698;BME280;51124;53.394;-6.294;2023-04-28T03:54:07;100154.97;;;18.43;10.01
64698;BME280;51124;53.394;-6.294;2023-04-28T03:56:35;100156.07;;;20.43;10.05
64698;BME280;51124;53.394;-6.294;2023-04-28T03:59:03;100156.32;;;20.89;10.48
64698;BME280;51124;53.394;-6.294;2023-04-28T04:01:30;100157.01;;;20.42;10.78
64698;BME280;51124;53.394;-6.294;2023-04-28T04:03:57;100163.25;;;20.47;10.84
64698;BME280;51124;53.394;-6.294;2023-04-28T04:06:25;100160.60;;;20.05;11.08
64698;BME280;51124;53.394;-6.294;2023-04-28T04:08:53;100163.99;;;20.10;11.36
64698;BME280;51124;53.394;-6.294;2023-04-28T04:11:20;100163.38;;;20.66;11.24
64698;BME280;51124;53.394;-6.294;2023-04-28T04:13:47;100162.13;;;20.62;11.18
64698;BME280;51124;53.394;-6.294;2023-04-28T04:16:15;100159.96;;;20.30;11.39
64698;BME280;51124;53.394;-6.294;2023-04-28T04:18:43;100164.40;;;20.31;11.42
64698;BME280;51124;53.394;-6.294;2023-04-28T04:21:10;100169.02;;;19.82;11.50
64698;BME280;51124;53.394;-6.294;2023-04-28T04:23:37;100170.49;;;20.15;11.64
64698;BME280;51124;53.394;-6.294;2023-04-28T04:26:05;100169.90;;;19.85;11.52
64698;BME280;51124;53.394;-6.294;2023-04-28T04:28:33;100166.76;;;20.73;11.40
64698;BME280;51124;53.394;-6.294;2023-04-28T04:31:00;100171.25;;;20.21;11.50
64698;BME280;51124;53.394;-6.294;2023-04-28T04:33:27;100173.38;;;20.35;11.54
64698;BME280;51124;53.394;-6.294;2023-04-28T04:35:55;100171.28;;;20.06;11.60
64698;BME280;51124;53.394;-6.294;2023-04-28T04:38:22;100173.63;;;20.05;11.68
64698;BME280;51124;53.394;-6.294;2023-04-28T04:40:49;100176.53;;;20.28;11.54
64698;BME280;51124;53.394;-6.294;2023-04-28T04:43:17;100174.13;;;19.74;11.69
64698;BME280;51124;53.394;-6.294;2023-04-28T04:45:44;100181.38;;;20.23;11.59
64698;BME280;51124;53.394;-6.294;2023-04-28T04:48:12;100184.00;;;18.92;11.45
64698;BME280;51124;53.394;-6.294;2023-04-28T04:50:39;100179.52;;;17.19;11.27
64698;BME280;51124;53.394;-6.294;2023-04-28T04:53:06;100179.19;;;17.85;10.67
64698;BME280;51124;53.394;-6.294;2023-04-28T04:55:33;100179.35;;;17.57;10.51
64698;BME280;51124;53.394;-6.294;2023-04-28T04:58:01;100179.77;;;19.09;10.17
64698;BME280;51124;53.394;-6.294;2023-04-28T05:00:28;100182.37;;;18.50;9.94
64698;BME280;51124;53.394;-6.294;2023-04-28T05:02:55;100186.98;;;17.69;9.91
64698;BME280;51124;53.394;-6.294;2023-04-28T05:05:22;100183.93;;;18.20;9.64
64698;BME280;51124;53.394;-6.294;2023-04-28T05:07:50;100188.43;;;17.87;9.69
64698;BME280;51124;53.394;-6.294;2023-04-28T05:10:17;100189.93;;;17.94;9.52
64698;BME280;51124;53.394;-6.294;2023-04-28T05:12:45;100191.51;;;18.31;9.60
64698;BME280;51124;53.394;-6.294;2023-04-28T05:15:12;100189.87;;;19.05;9.24
64698;BME280;51124;53.394;-6.294;2023-04-28T05:17:39;100193.75;;;17.95;9.46
64698;BME280;51124;53.394;-6.294;2023-04-28T05:20:07;100197.70;;;17.75;9.41
64698;BME280;51124;53.394;-6.294;2023-04-28T05:22:35;100203.46;;;17.34;9.50
64698;BME280;51124;53.394;-6.294;2023-04-28T05:25:02;100205.57;;;17.82;9.35
64698;BME280;51124;53.394;-6.294;2023-04-28T05:27:30;100207.18;;;17.28;9.44
64698;BME280;51124;53.394;-6.294;2023-04-28T05:29:57;100217.33;;;17.65;9.30
64698;BME280;51124;53.394;-6.294;2023-04-28T05:32:24;100218.10;;;18.11;9.24
64698;BME280;51124;53.394;-6.294;2023-04-28T05:34:51;100221.47;;;18.74;9.12
64698;BME280;51124;53.394;-6.294;2023-04-28T05:37:18;100224.97;;;18.09;9.21
64698;BME280;51124;53.394;-6.294;2023-04-28T05:39:46;100224.81;;;18.43;9.14
64698;BME280;51124;53.394;-6.294;2023-04-28T05:42:13;100229.53;;;18.63;8.97
64698;BME280;51124;53.394;-6.294;2023-04-28T05:44:40;100233.11;;;17.52;9.19
64698;BME280;51124;53.394;-6.294;2023-04-28T05:47:07;100236.07;;;18.12;8.99
64698;BME280;51124;53.394;-6.294;2023-04-28T05:49:35;100238.93;;;17.97;9.06
64698;BME280;51124;53.394;-6.294;2023-04-28T05:52:03;100242.63;;;18.10;8.95
64698;BME280;51124;53.394;-6.294;2023-04-28T05:54:30;100242.69;;;19.14;8.92
64698;BME280;51124;53.394;-6.294;2023-04-28T05:56:58;100245.89;;;18.90;8.92
64698;BME280;51124;53.394;-6.294;2023-04-28T05:59:21;100250.46;;;18.60;8.88
64698;BME280;51124;53.394;-6.294;2023-04-28T06:01:54;100250.17;;;18.85;8.74
64698;BME280;51124;53.394;-6.294;2023-04-28T06:04:28;100247.63;;;19.27;8.71
64698;BME280;51124;53.394;-6.294;2023-04-28T06:07:01;100249.77;;;18.75;8.81
64698;BME280;51124;53.394;-6.294;2023-04-28T06:09:35;100249.81;;;18.52;8.83
64698;BME280;51124;53.394;-6.294;2023-04-28T06:12:08;100252.43;;;19.73;8.62
64698;BME280;51124;53.394;-6.294;2023-04-28T06:14:41;100255.09;;;18.72;8.72
64698;BME280;51124;53.394;-6.294;2023-04-28T06:17:14;100256.99;;;18.82;8.62
64698;BME280;51124;53.394;-6.294;2023-04-28T06:19:48;100260.34;;;20.11;8.63
64698;BME280;51124;53.394;-6.294;2023-04-28T06:22:22;100270.39;;;16.85;9.40
64698;BME280;51124;53.394;-6.294;2023-04-28T06:24:55;100274.48;;;17.02;9.81
64698;BME280;51124;53.394;-6.294;2023-04-28T06:27:28;100279.96;;;17.35;9.88
64698;BME280;51124;53.394;-6.294;2023-04-28T06:30:02;100279.41;;;17.49;9.83
64698;BME280;51124;53.394;-6.294;2023-04-28T06:32:36;100278.92;;;17.79;10.04
64698;BME280;51124;53.394;-6.294;2023-04-28T06:35:09;100285.27;;;18.39;9.82
64698;BME280;51124;53.394;-6.294;2023-04-28T06:37:42;100283.58;;;17.32;9.97
64698;BME280;51124;53.394;-6.294;2023-04-28T06:40:16;100287.58;;;19.12;9.11
64698;BME280;51124;53.394;-6.294;2023-04-28T06:42:49;100289.32;;;18.71;9.24
64698;BME280;51124;53.394;-6.294;2023-04-28T06:45:23;100297.24;;;19.02;9.12
64698;BME280;51124;53.394;-6.294;2023-04-28T06:47:56;100298.50;;;19.39;9.09
64698;BME280;51124;53.394;-6.294;2023-04-28T06:50:30;100303.33;;;22.08;9.18
64698;BME280;51124;53.394;-6.294;2023-04-28T06:53:03;100309.24;;;21.94;9.51
64698;BME280;51124;53.394;-6.294;2023-04-28T06:55:37;100313.14;;;20.37;9.53
64698;BME280;51124;53.394;-6.294;2023-04-28T06:58:10;100316.73;;;23.20;9.39
64698;BME280;51124;53.394;-6.294;2023-04-28T07:00:44;100321.54;;;22.38;10.02
64698;BME280;51124;53.394;-6.294;2023-04-28T07:03:17;100323.37;;;22.87;10.29
64698;BME280;51124;53.394;-6.294;2023-04-28T07:05:51;100329.26;;;22.58;10.45
64698;BME280;51124;53.394;-6.294;2023-04-28T07:08:24;100331.52;;;22.00;10.56
64698;BME280;51124;53.394;-6.294;2023-04-28T07:10:58;100333.34;;;21.87;10.68
64698;BME280;51124;53.394;-6.294;2023-04-28T07:13:32;100334.31;;;21.99;10.79
64698;BME280;51124;53.394;-6.294;2023-04-28T07:16:05;100334.80;;;21.69;10.72
64698;BME280;51124;53.394;-6.294;2023-04-28T07:18:39;100338.48;;;21.90;10.56
64698;BME280;51124;53.394;-6.294;2023-04-28T07:21:13;100342.89;;;21.97;10.31
64698;BME280;51124;53.394;-6.294;2023-04-28T07:23:46;100343.35;;;21.66;10.50
64698;BME280;51124;53.394;-6.294;2023-04-28T07:26:20;100345.79;;;22.50;11.80
64698;BME280;51124;53.394;-6.294;2023-04-28T07:28:53;100355.99;;;21.19;12.33
64698;BME280;51124;53.394;-6.294;2023-04-28T07:31:27;100360.77;;;19.94;12.61
64698;BME280;51124;53.394;-6.294;2023-04-28T07:34:01;100356.12;;;21.10;12.30
64698;BME280;51124;53.394;-6.294;2023-04-28T07:36:34;100363.27;;;20.56;12.30
64698;BME280;51124;53.394;-6.294;2023-04-28T07:39:08;100366.88;;;21.39;12.20
64698;BME280;51124;53.394;-6.294;2023-04-28T07:41:41;100367.08;;;20.73;12.22
64698;BME280;51124;53.394;-6.294;2023-04-28T07:44:15;100373.80;;;21.04;12.15
64698;BME280;51124;53.394;-6.294;2023-04-28T07:46:49;100378.58;;;21.42;12.11
64698;BME280;51124;53.394;-6.294;2023-04-28T07:49:22;100377.69;;;20.82;11.87
64698;BME280;51124;53.394;-6.294;2023-04-28T07:51:57;100384.79;;;19.59;11.42
64698;BME280;51124;53.394;-6.294;2023-04-28T07:54:30;100386.35;;;19.58;10.95
64698;BME280;51124;53.394;-6.294;2023-04-28T07:57:04;100389.68;;;19.33;11.08
64698;BME280;51124;53.394;-6.294;2023-04-28T07:59:37;100389.11;;;20.86;10.39
64698;BME280;51124;53.394;-6.294;2023-04-28T08:02:10;100392.26;;;20.20;10.51
64698;BME280;51124;53.394;-6.294;2023-04-28T08:04:44;100394.48;;;20.03;10.41
64698;BME280;51124;53.394;-6.294;2023-04-28T08:07:17;100396.56;;;20.42;9.96
64698;BME280;51124;53.394;-6.294;2023-04-28T08:09:50;100399.85;;;20.44;9.82
64698;BME280;51124;53.394;-6.294;2023-04-28T08:12:24;100400.59;;;20.15;9.98
64698;BME280;51124;53.394;-6.294;2023-04-28T08:14:57;100399.18;;;21.64;9.53
64698;BME280;51124;53.394;-6.294;2023-04-28T08:17:31;100409.82;;;20.94;9.76
64698;BME280;51124;53.394;-6.294;2023-04-28T08:20:05;100409.65;;;20.38;9.83
64698;BME280;51124;53.394;-6.294;2023-04-28T08:22:39;100410.94;;;20.17;9.87
64698;BME280;51124;53.394;-6.294;2023-04-28T08:25:13;100416.53;;;19.66;9.88
64698;BME280;51124;53.394;-6.294;2023-04-28T08:27:46;100416.44;;;21.31;9.37
64698;BME280;51124;53.394;-6.294;2023-04-28T08:30:19;100417.77;;;21.35;9.29
64698;BME280;51124;53.394;-6.294;2023-04-28T08:32:53;100419.23;;;20.90;9.32
64698;BME280;51124;53.394;-6.294;2023-04-28T08:35:26;100419.18;;;20.87;9.25
64698;BME280;51124;53.394;-6.294;2023-04-28T08:37:59;100420.86;;;21.42;9.21
64698;BME280;51124;53.394;-6.294;2023-04-28T08:40:33;100421.21;;;20.59;9.68
64698;BME280;51124;53.394;-6.294;2023-04-28T08:43:06;100426.82;;;20.28;9.63
64698;BME280;51124;53.394;-6.294;2023-04-28T08:45:41;100424.34;;;21.79;9.21
64698;BME280;51124;53.394;-6.294;2023-04-28T08:48:17;100430.17;;;20.92;9.50
64698;BME280;51124;53.394;-6.294;2023-04-28T08:50:41;100428.96;;;21.26;9.26
64698;BME280;51124;53.394;-6.294;2023-04-28T08:53:06;100431.43;;;21.49;9.19
64698;BME280;51124;53.394;-6.294;2023-04-28T08:55:39;100432.04;;;21.74;9.03
64698;BME280;51124;53.394;-6.294;2023-04-28T08:58:13;100440.32;;;21.23;9.17
64698;BME280;51124;53.394;-6.294;2023-04-28T09:00:47;100436.23;;;21.88;8.95
64698;BME280;51124;53.394;-6.294;2023-04-28T09:03:20;100438.23;;;22.00;9.00
64698;BME280;51124;53.394;-6.294;2023-04-28T09:05:54;100440.53;;;21.46;9.04
64698;BME280;51124;53.394;-6.294;2023-04-28T09:08:27;100448.09;;;22.00;9.07
64698;BME280;51124;53.394;-6.294;2023-04-28T09:11:09;100447.95;;;21.62;9.01
64698;BME280;51124;53.394;-6.294;2023-04-28T09:13:32;100449.81;;;21.38;8.97
64698;BME280;51124;53.394;-6.294;2023-04-28T09:16:06;100454.84;;;21.77;9.00
64698;BME280;51124;53.394;-6.294;2023-04-28T09:18:41;100462.13;;;22.46;9.11
64698;BME280;51124;53.394;-6.294;2023-04-28T09:21:08;100462.36;;;21.56;9.18
64698;BME280;51124;53.394;-6.294;2023-04-28T09:23:46;100463.63;;;21.64;9.15
64698;BME280;51124;53.394;-6.294;2023-04-28T09:26:10;100460.16;;;22.45;9.07
64698;BME280;51124;53.394;-6.294;2023-04-28T09:28:43;100466.57;;;22.08;9.09
64698;BME280;51124;53.394;-6.294;2023-04-28T09:31:24;100469.38;;;21.91;9.16
64698;BME280;51124;53.394;-6.294;2023-04-28T09:33:56;100467.23;;;21.71;8.96
64698;BME280;51124;53.394;-6.294;2023-04-28T09:36:25;100469.90;;;21.64;9.04
64698;BME280;51124;53.394;-6.294;2023-04-28T09:38:48;100470.79;;;23.11;8.80
64698;BME280;51124;53.394;-6.294;2023-04-28T09:41:35;100471.36;;;22.20;9.02
64698;BME280;51124;53.394;-6.294;2023-04-28T09:43:48;100467.22;;;21.96;9.02
64698;BME280;51124;53.394;-6.294;2023-04-28T09:46:28;100468.68;;;21.97;8.74
64698;BME280;51124;53.394;-6.294;2023-04-28T09:48:59;100468.82;;;22.20;8.87
64698;BME280;51124;53.394;-6.294;2023-04-28T09:51:24;100473.73;;;21.33;8.90
64698;BME280;51124;53.394;-6.294;2023-04-28T09:53:59;100473.18;;;23.51;8.76
64698;BME280;51124;53.394;-6.294;2023-04-28T09:56:23;100483.38;;;23.86;9.30
64698;BME280;51124;53.394;-6.294;2023-04-28T09:58:50;100484.29;;;23.55;9.61
64698;BME280;51124;53.394;-6.294;2023-04-28T10:01:24;100484.57;;;22.46;9.77
64698;BME280;51124;53.394;-6.294;2023-04-28T10:03:59;100486.28;;;24.41;9.57
64698;BME280;51124;53.394;-6.294;2023-04-28T10:06:34;100490.12;;;24.53;10.00
64698;BME280;51124;53.394;-6.294;2023-04-28T10:09:08;100488.44;;;25.01;10.36
64698;BME280;51124;53.394;-6.294;2023-04-28T10:11:42;100492.74;;;25.52;10.23
64698;BME280;51124;53.394;-6.294;2023-04-28T10:14:15;100497.47;;;24.45;10.57
64698;BME280;51124;53.394;-6.294;2023-04-28T10:16:49;100497.48;;;24.96;10.56
64698;BME280;51124;53.394;-6.294;2023-04-28T10:19:22;100501.46;;;23.81;10.92
64698;BME280;51124;53.394;-6.294;2023-04-28T10:22:04;100507.45;;;24.39;10.72
64698;BME280;51124;53.394;-6.294;2023-04-28T10:24:31;100508.83;;;25.13;10.69
64698;BME280;51124;53.394;-6.294;2023-04-28T10:27:07;100513.99;;;24.34;10.93
64698;BME280;51124;53.394;-6.294;2023-04-28T10:29:32;100521.78;;;24.41;11.01
64698;BME280;51124;53.394;-6.294;2023-04-28T10:32:22;100512.90;;;24.99;10.74
64698;BME280;51124;53.394;-6.294;2023-04-28T10:34:35;100517.86;;;25.04;10.76
64698;BME280;51124;53.394;-6.294;2023-04-28T10:37:10;100515.10;;;24.93;10.87
64698;BME280;51124;53.394;-6.294;2023-04-28T10:40:50;100524.60;;;24.73;11.17
64698;BME280;51124;53.394;-6.294;2023-04-28T10:43:33;100523.03;;;23.38;11.31
64698;BME280;51124;53.394;-6.294;2023-04-28T10:44:45;100525.53;;;24.11;11.22
64698;BME280;51124;53.394;-6.294;2023-04-28T10:47:19;100532.74;;;23.98;11.44
64698;BME280;51124;53.394;-6.294;2023-04-28T10:50:09;100531.11;;;23.58;11.56
64698;BME280;51124;53.394;-6.294;2023-04-28T10:52:47;100530.70;;;24.17;11.36
64698;BME280;51124;53.394;-6.294;2023-04-28T10:55:25;100534.14;;;23.62;11.25
64698;BME280;51124;53.394;-6.294;2023-04-28T10:57:19;100535.17;;;23.11;10.84
64698;BME280;51124;53.394;-6.294;2023-04-28T11:00:25;100542.63;;;22.87;10.32
64698;BME280;51124;53.394;-6.294;2023-04-28T11:02:50;100544.07;;;22.99;10.10
64698;BME280;51124;53.394;-6.294;2023-04-28T11:05:24;100542.87;;;23.65;9.58
64698;BME280;51124;53.394;-6.294;2023-04-28T11:07:27;100542.38;;;23.74;9.42
64698;BME280;51124;53.394;-6.294;2023-04-28T11:10:00;100542.96;;;23.54;9.32
64698;BME280;51124;53.394;-6.294;2023-04-28T11:12:34;100536.30;;;23.31;9.11
64698;BME280;51124;53.394;-6.294;2023-04-28T11:15:11;100535.20;;;23.41;9.03
64698;BME280;51124;53.394;-6.294;2023-04-28T11:17:39;100542.70;;;23.57;8.65
64698;BME280;51124;53.394;-6.294;2023-04-28T11:20:03;100542.17;;;22.94;8.63
64698;BME280;51124;53.394;-6.294;2023-04-28T11:22:37;100540.30;;;22.97;8.73
64698;BME280;51124;53.394;-6.294;2023-04-28T11:25:11;100542.83;;;22.79;8.88
64698;BME280;51124;53.394;-6.294;2023-04-28T11:27:45;100545.93;;;22.45;8.93
64698;BME280;51124;53.394;-6.294;2023-04-28T11:30:19;100552.38;;;22.48;9.03
64698;BME280;51124;53.394;-6.294;2023-04-28T11:32:53;100553.36;;;22.08;9.02
64698;BME280;51124;53.394;-6.294;2023-04-28T11:35:39;100555.92;;;22.80;8.62
64698;BME280;51124;53.394;-6.294;2023-04-28T11:38:00;100558.52;;;22.15;8.80
64698;BME280;51124;53.394;-6.294;2023-04-28T11:40:24;100560.37;;;22.68;8.75
64698;BME280;51124;53.394;-6.294;2023-04-28T11:42:57;100562.83;;;22.45;8.81
64698;BME280;51124;53.394;-6.294;2023-04-28T11:45:31;100564.92;;;21.76;9.01
64698;BME280;51124;53.394;-6.294;2023-04-28T11:48:19;100568.21;;;22.04;8.74
64698;BME280;51124;53.394;-6.294;2023-04-28T11:50:36;100568.15;;;22.80;8.44
64698;BME280;51124;53.394;-6.294;2023-04-28T11:52:59;100565.05;;;22.50;8.56
64698;BME280;51124;53.394;-6.294;2023-04-28T11:55:32;100564.48;;;22.64;8.50
64698;BME280;51124;53.394;-6.294;2023-04-28T11:58:22;100567.92;;;22.43;8.34
64698;BME280;51124;53.394;-6.294;2023-04-28T12:00:35;100562.91;;;23.82;7.93
64698;BME280;51124;53.394;-6.294;2023-04-28T12:03:08;100565.86;;;23.94;7.84
64698;BME280;51124;53.394;-6.294;2023-04-28T12:05:43;100568.06;;;22.89;8.16
64698;BME280;51124;53.394;-6.294;2023-04-28T12:08:27;100573.63;;;23.76;7.94
64698;BME280;51124;53.394;-6.294;2023-04-28T12:11:06;100576.88;;;24.25;7.95
64698;BME280;51124;53.394;-6.294;2023-04-28T12:13:21;100572.93;;;25.06;7.39
64698;BME280;51124;53.394;-6.294;2023-04-28T12:15:44;100570.47;;;25.19;7.27
64698;BME280;51124;53.394;-6.294;2023-04-28T12:18:18;100578.83;;;25.09;7.40
64698;BME280;51124;53.394;-6.294;2023-04-28T12:20:51;100576.92;;;25.48;7.27
64698;BME280;51124;53.394;-6.294;2023-04-28T12:23:29;100575.33;;;25.71;7.28
64698;BME280;51124;53.394;-6.294;2023-04-28T12:25:52;100577.67;;;25.58;7.38
64698;BME280;51124;53.394;-6.294;2023-04-28T12:28:35;100587.94;;;23.95;7.95
64698;BME280;51124;53.394;-6.294;2023-04-28T12:31:31;100590.98;;;25.02;8.03
64698;BME280;51124;53.394;-6.294;2023-04-28T12:33:26;100595.26;;;23.71;8.24
64698;BME280;51124;53.394;-6.294;2023-04-28T12:35:49;100599.56;;;23.46;8.47
64698;BME280;51124;53.394;-6.294;2023-04-28T12:38:23;100597.62;;;23.50;8.46
64698;BME280;51124;53.394;-6.294;2023-04-28T12:40:56;100603.51;;;23.23;8.76
64698;BME280;51124;53.394;-6.294;2023-04-28T12:43:30;100601.74;;;23.87;8.46
64698;BME280;51124;53.394;-6.294;2023-04-28T12:46:03;100602.70;;;23.40;8.78
64698;BME280;51124;53.394;-6.294;2023-04-28T12:48:37;100604.86;;;23.84;8.61
64698;BME280;51124;53.394;-6.294;2023-04-28T12:51:10;100604.73;;;23.14;8.75
64698;BME280;51124;53.394;-6.294;2023-04-28T12:53:44;100609.45;;;23.27;8.63
64698;BME280;51124;53.394;-6.294;2023-04-28T12:56:17;100612.03;;;24.60;8.44
64698;BME280;51124;53.394;-6.294;2023-04-28T12:58:51;100613.02;;;24.13;8.46